createdAt,value
2018-04-29T00:00:27.316Z,2.50
2018-04-29T00:01:27.189Z,2.50
2018-04-29T00:02:27.067Z,2.90
2018-04-29T00:03:26.946Z,2.80
2018-04-29T00:04:26.813Z,3.60
2018-04-29T00:05:26.688Z,3.20
2018-04-29T00:06:26.562Z,3.40
2018-04-29T00:07:26.438Z,3.20
2018-04-29T00:08:26.311Z,3.10
2018-04-29T00:09:26.185Z,3.10
2018-04-29T00:10:26.059Z,3.20
2018-04-29T00:11:25.933Z,3.20
2018-04-29T00:12:25.808Z,3.40
2018-04-29T00:13:25.683Z,3.60
2018-04-29T00:14:25.557Z,3.90
2018-04-29T00:15:25.432Z,3.90
2018-04-29T00:16:25.307Z,4.30
2018-04-29T00:17:25.186Z,3.50
2018-04-29T00:18:25.055Z,3.40
2018-04-29T00:19:24.930Z,3.10
2018-04-29T00:20:24.804Z,2.80
2018-04-29T00:21:24.679Z,2.80
2018-04-29T00:22:24.550Z,3.00
2018-04-29T00:23:24.429Z,3.00
2018-04-29T00:24:24.300Z,3.30
2018-04-29T00:25:24.178Z,2.90
2018-04-29T00:26:24.048Z,3.00
2018-04-29T00:27:23.923Z,2.50
2018-04-29T00:28:23.798Z,2.90
2018-04-29T00:29:23.679Z,2.70
2018-04-29T00:30:23.546Z,2.80
2018-04-29T00:31:23.421Z,2.70
2018-04-29T00:32:23.293Z,3.00
2018-04-29T00:33:23.171Z,2.60
2018-04-29T00:34:23.044Z,3.00
2018-04-29T00:35:22.917Z,3.10
2018-04-29T00:36:22.791Z,2.90
2018-04-29T00:37:22.666Z,3.00
2018-04-29T00:38:22.542Z,3.00
2018-04-29T00:39:22.418Z,3.30
2018-04-29T00:40:22.293Z,3.00
2018-04-29T00:41:22.167Z,2.90
2018-04-29T00:42:22.040Z,3.00
2018-04-29T00:43:21.915Z,3.30
2018-04-29T00:44:21.809Z,3.00
2018-04-29T00:45:21.669Z,3.20
2018-04-29T00:46:21.542Z,3.50
2018-04-29T00:47:21.417Z,3.00
2018-04-29T00:48:21.291Z,3.10
2018-04-29T00:49:21.165Z,3.00
2018-04-29T00:50:21.037Z,3.40
2018-04-29T00:51:20.914Z,3.50
2018-04-29T00:52:20.788Z,3.30
2018-04-29T00:53:20.713Z,3.60
2018-04-29T00:54:20.535Z,4.00
2018-04-29T00:55:20.408Z,3.30
2018-04-29T00:56:20.287Z,3.40
2018-04-29T00:57:20.162Z,3.30
2018-04-29T00:58:20.032Z,4.00
2018-04-29T00:59:19.909Z,3.50
2018-04-29T01:00:19.782Z,3.50
2018-04-29T01:01:19.657Z,3.60
2018-04-29T01:02:19.530Z,3.30
2018-04-29T01:03:19.406Z,3.40
2018-04-29T01:04:19.280Z,3.20
2018-04-29T01:05:19.155Z,3.40
2018-04-29T01:06:19.030Z,3.10
2018-04-29T01:07:18.904Z,3.00
2018-04-29T01:08:18.777Z,3.70
2018-04-29T01:09:18.651Z,3.40
2018-04-29T01:10:18.525Z,4.00
2018-04-29T01:11:18.399Z,3.60
2018-04-29T01:12:18.274Z,3.60
2018-04-29T01:13:18.149Z,3.50
2018-04-29T01:14:18.029Z,3.40
2018-04-29T01:15:17.897Z,3.20
2018-04-29T01:16:17.772Z,3.30
2018-04-29T01:17:17.646Z,3.40
2018-04-29T01:18:17.519Z,3.10
2018-04-29T01:19:17.396Z,3.10
2018-04-29T01:20:17.268Z,3.00
2018-04-29T01:21:17.142Z,2.90
2018-04-29T01:22:17.017Z,3.00
2018-04-29T01:23:16.891Z,3.30
2018-04-29T01:24:16.772Z,3.20
2018-04-29T01:25:16.639Z,3.50
2018-04-29T01:26:16.515Z,3.20
2018-04-29T01:27:16.388Z,3.10
2018-04-29T01:28:16.264Z,3.50
2018-04-29T01:29:16.138Z,3.40
2018-04-29T01:30:16.012Z,3.70
2018-04-29T01:31:15.886Z,3.50
2018-04-29T01:32:15.761Z,3.40
2018-04-29T01:33:15.634Z,3.80
2018-04-29T01:34:15.508Z,3.20
2018-04-29T01:35:15.384Z,3.20
2018-04-29T01:36:15.257Z,3.20
2018-04-29T01:37:15.132Z,3.50
2018-04-29T01:38:15.006Z,3.50
2018-04-29T01:39:14.880Z,3.10
2018-04-29T01:40:14.755Z,3.30
2018-04-29T01:41:14.633Z,3.20
2018-04-29T01:42:14.505Z,3.40
2018-04-29T01:43:14.375Z,3.20
2018-04-29T01:44:14.255Z,2.80
2018-04-29T01:45:14.126Z,3.10
2018-04-29T01:46:13.998Z,2.90
2018-04-29T01:47:13.873Z,2.90
2018-04-29T01:48:13.751Z,3.10
2018-04-29T01:49:13.624Z,3.50
2018-04-29T01:50:13.499Z,3.20
2018-04-29T01:51:13.373Z,3.30
2018-04-29T01:52:13.249Z,3.00
2018-04-29T01:53:13.121Z,3.40
2018-04-29T01:54:12.997Z,3.10
2018-04-29T01:55:12.874Z,3.60
2018-04-29T01:56:12.742Z,3.50
2018-04-29T01:57:12.619Z,3.70
2018-04-29T01:58:12.490Z,3.60
2018-04-29T01:59:12.367Z,3.60
2018-04-29T02:00:12.242Z,3.60
2018-04-29T02:01:12.117Z,3.80
2018-04-29T02:02:11.989Z,3.50
2018-04-29T02:03:11.863Z,3.60
2018-04-29T02:04:11.736Z,3.70
2018-04-29T02:05:11.609Z,3.90
2018-04-29T02:06:11.487Z,4.20
2018-04-29T02:07:11.359Z,3.90
2018-04-29T02:08:11.235Z,4.10
2018-04-29T02:09:11.107Z,4.20
2018-04-29T02:10:10.980Z,4.00
2018-04-29T02:11:10.857Z,3.90
2018-04-29T02:12:10.729Z,4.20
2018-04-29T02:13:10.604Z,4.00
2018-04-29T02:14:10.480Z,4.00
2018-04-29T02:15:10.350Z,3.70
2018-04-29T02:16:10.226Z,3.60
2018-04-29T02:17:10.101Z,3.40
2018-04-29T02:18:09.974Z,3.60
2018-04-29T02:19:09.850Z,3.90
2018-04-29T02:20:09.725Z,3.80
2018-04-29T02:21:09.599Z,3.50
2018-04-29T02:22:09.477Z,3.80
2018-04-29T02:23:09.347Z,3.70
2018-04-29T02:24:09.220Z,3.80
2018-04-29T02:25:09.097Z,3.80
2018-04-29T02:26:08.970Z,3.60
2018-04-29T02:27:08.850Z,4.10
2018-04-29T02:28:08.726Z,3.50
2018-04-29T02:29:08.594Z,3.50
2018-04-29T02:30:08.467Z,3.70
2018-04-29T02:31:08.347Z,3.70
2018-04-29T02:32:08.223Z,3.60
2018-04-29T02:33:08.092Z,3.40
2018-04-29T02:34:07.966Z,3.10
2018-04-29T02:35:07.840Z,3.40
2018-04-29T02:36:07.716Z,3.30
2018-04-29T02:37:07.591Z,3.90
2018-04-29T02:38:07.464Z,3.50
2018-04-29T02:39:07.338Z,3.60
2018-04-29T02:40:07.212Z,3.80
2018-04-29T02:41:07.088Z,3.60
2018-04-29T02:42:06.961Z,3.40
2018-04-29T02:43:06.838Z,4.00
2018-04-29T02:44:06.712Z,3.60
2018-04-29T02:45:06.585Z,4.10
2018-04-29T02:46:06.462Z,3.50
2018-04-29T02:47:06.334Z,3.70
2018-04-29T02:48:06.210Z,3.60
2018-04-29T02:49:06.084Z,3.50
2018-04-29T02:50:05.959Z,3.40
2018-04-29T02:51:05.833Z,3.60
2018-04-29T02:52:05.708Z,3.30
2018-04-29T02:53:05.591Z,3.80
2018-04-29T02:54:05.455Z,3.50
2018-04-29T02:55:05.329Z,3.50
2018-04-29T02:56:05.208Z,3.40
2018-04-29T02:57:05.082Z,3.40
2018-04-29T02:58:04.955Z,3.10
2018-04-29T02:59:04.839Z,3.60
2018-04-29T03:00:04.704Z,3.50
2018-04-29T03:01:04.580Z,3.60
2018-04-29T03:02:04.453Z,3.50
2018-04-29T03:03:04.329Z,3.30
2018-04-29T03:04:04.212Z,3.80
2018-04-29T03:05:04.078Z,3.40
2018-04-29T03:06:03.954Z,3.40
2018-04-29T03:07:03.828Z,3.70
2018-04-29T03:08:03.702Z,3.40
2018-04-29T03:09:03.575Z,3.20
2018-04-29T03:10:03.450Z,3.50
2018-04-29T03:11:03.326Z,3.40
2018-04-29T03:12:03.202Z,3.70
2018-04-29T03:13:03.078Z,3.30
2018-04-29T03:14:02.950Z,3.50
2018-04-29T03:15:02.824Z,3.60
2018-04-29T03:16:02.697Z,3.50
2018-04-29T03:17:02.575Z,3.40
2018-04-29T03:18:02.453Z,3.50
2018-04-29T03:19:02.324Z,3.80
2018-04-29T03:20:02.201Z,3.60
2018-04-29T03:21:02.079Z,3.70
2018-04-29T03:22:01.947Z,3.30
2018-04-29T03:23:01.820Z,3.30
2018-04-29T03:24:01.695Z,3.90
2018-04-29T03:25:01.573Z,4.10
2018-04-29T03:26:01.444Z,3.30
2018-04-29T03:27:01.322Z,3.60
2018-04-29T03:28:01.195Z,4.20
2018-04-29T03:29:01.070Z,4.10
2018-04-29T03:30:00.946Z,4.10
2018-04-29T03:31:00.819Z,3.90
2018-04-29T03:32:00.694Z,3.50
2018-04-29T03:33:00.570Z,4.00
2018-04-29T03:34:00.442Z,3.90
2018-04-29T03:35:00.322Z,3.80
2018-04-29T03:36:00.194Z,3.90
2018-04-29T03:37:00.069Z,3.80
2018-04-29T03:37:59.944Z,3.80
2018-04-29T03:38:59.821Z,3.70
2018-04-29T03:39:59.697Z,3.80
2018-04-29T03:40:59.567Z,3.60
2018-04-29T03:41:59.441Z,3.90
2018-04-29T03:42:59.315Z,4.00
2018-04-29T03:43:59.195Z,3.80
2018-04-29T03:44:59.066Z,3.80
2018-04-29T03:45:58.943Z,3.90
2018-04-29T03:46:58.815Z,3.70
2018-04-29T03:47:58.689Z,3.60
2018-04-29T03:48:58.565Z,4.00
2018-04-29T03:49:58.439Z,3.40
2018-04-29T03:50:58.315Z,3.60
2018-04-29T03:51:58.188Z,3.40
2018-04-29T03:52:58.065Z,3.50
2018-04-29T03:53:57.939Z,3.40
2018-04-29T03:54:57.812Z,3.30
2018-04-29T03:55:57.693Z,3.70
2018-04-29T03:56:57.562Z,3.70
2018-04-29T03:57:57.435Z,3.50
2018-04-29T03:58:57.311Z,3.90
2018-04-29T03:59:57.186Z,3.70
2018-04-29T04:00:57.061Z,3.50
2018-04-29T04:01:56.933Z,3.50
2018-04-29T04:02:56.808Z,3.10
2018-04-29T04:03:56.684Z,3.30
2018-04-29T04:04:56.558Z,5.90
2018-04-29T04:05:56.432Z,3.60
2018-04-29T04:06:56.304Z,7.00
2018-04-29T04:07:56.182Z,3.70
2018-04-29T04:08:56.059Z,3.50
2018-04-29T04:09:55.931Z,3.70
2018-04-29T04:10:55.805Z,3.90
2018-04-29T04:11:55.685Z,3.60
2018-04-29T04:12:55.554Z,3.50
2018-04-29T04:13:55.429Z,3.30
2018-04-29T04:14:55.304Z,3.40
2018-04-29T04:15:55.176Z,3.50
2018-04-29T04:16:55.052Z,3.60
2018-04-29T04:17:54.928Z,3.60
2018-04-29T04:18:54.803Z,3.60
2018-04-29T04:19:54.677Z,3.10
2018-04-29T04:20:54.549Z,3.50
2018-04-29T04:21:54.424Z,3.60
2018-04-29T04:22:54.299Z,3.30
2018-04-29T04:23:54.175Z,3.20
2018-04-29T04:24:54.050Z,3.30
2018-04-29T04:25:53.927Z,3.30
2018-04-29T04:26:53.799Z,3.30
2018-04-29T04:27:53.675Z,3.60
2018-04-29T04:28:53.548Z,3.60
2018-04-29T04:29:53.423Z,3.50
2018-04-29T04:30:53.297Z,3.50
2018-04-29T04:31:53.173Z,3.40
2018-04-29T04:32:53.052Z,3.50
2018-04-29T04:33:52.923Z,3.20
2018-04-29T04:34:52.798Z,2.90
2018-04-29T04:35:52.673Z,3.60
2018-04-29T04:36:52.549Z,3.50
2018-04-29T04:37:52.422Z,3.60
2018-04-29T04:38:52.297Z,3.50
2018-04-29T04:39:52.170Z,3.30
2018-04-29T04:40:52.048Z,3.20
2018-04-29T04:41:51.923Z,3.20
2018-04-29T04:42:51.798Z,3.20
2018-04-29T04:43:51.675Z,3.40
2018-04-29T04:44:51.549Z,3.60
2018-04-29T04:45:51.427Z,3.50
2018-04-29T04:46:51.296Z,3.00
2018-04-29T04:49:22.650Z,3.30
2018-04-29T04:50:22.474Z,3.60
2018-04-29T04:52:15.134Z,3.30
2018-04-29T04:53:15.000Z,3.20
2018-04-29T04:54:14.875Z,3.10
2018-04-29T04:55:14.751Z,3.40
2018-04-29T04:56:14.626Z,3.20
2018-04-29T04:57:14.502Z,2.90
2018-04-29T04:58:14.435Z,3.30
2018-04-29T04:59:14.252Z,3.40
2018-04-29T05:00:14.127Z,3.40
2018-04-29T05:01:14.011Z,2.90
2018-04-29T05:02:13.878Z,3.10
2018-04-29T05:03:13.754Z,3.20
2018-04-29T05:04:13.630Z,3.30
2018-04-29T05:05:13.505Z,3.10
2018-04-29T05:06:13.381Z,3.40
2018-04-29T05:07:13.293Z,3.50
2018-04-29T05:08:13.131Z,3.00
2018-04-29T05:09:13.012Z,2.90
2018-04-29T05:10:12.883Z,3.30
2018-04-29T05:11:12.758Z,3.00
2018-04-29T05:12:12.634Z,3.00
2018-04-29T05:13:12.510Z,3.40
2018-04-29T05:14:12.384Z,2.70
2018-04-29T05:15:12.261Z,3.00
2018-04-29T05:16:12.137Z,3.20
2018-04-29T05:17:12.013Z,3.10
2018-04-29T05:18:11.886Z,3.00
2018-04-29T05:19:11.762Z,3.00
2018-04-29T05:20:11.640Z,3.20
2018-04-29T05:21:11.516Z,3.10
2018-04-29T05:22:11.422Z,3.50
2018-04-29T05:23:11.268Z,3.40
2018-04-29T05:24:11.143Z,2.90
2018-04-29T05:25:11.021Z,3.00
2018-04-29T05:26:10.895Z,3.10
2018-04-29T05:27:10.771Z,3.00
2018-04-29T05:28:10.647Z,3.10
2018-04-29T05:29:10.524Z,3.30
2018-04-29T05:30:10.399Z,3.10
2018-04-29T05:31:10.275Z,3.40
2018-04-29T05:32:10.152Z,3.10
2018-04-29T05:33:10.028Z,3.10
2018-04-29T05:34:09.904Z,3.40
2018-04-29T05:35:09.781Z,3.20
2018-04-29T05:36:09.658Z,3.10
2018-04-29T05:37:09.534Z,3.40
2018-04-29T05:38:09.408Z,3.30
2018-04-29T05:39:09.288Z,3.30
2018-04-29T05:40:09.164Z,3.10
2018-04-29T05:41:09.055Z,3.30
2018-04-29T05:42:08.916Z,2.80
2018-04-29T05:43:08.795Z,2.90
2018-04-29T05:44:08.671Z,2.90
2018-04-29T05:45:08.548Z,2.90
2018-04-29T05:46:08.422Z,3.30
2018-04-29T05:47:08.299Z,3.00
2018-04-29T05:48:08.176Z,2.90
2018-04-29T05:49:08.054Z,3.40
2018-04-29T05:50:07.936Z,3.10
2018-04-29T05:51:07.809Z,3.10
2018-04-29T05:52:07.687Z,3.00
2018-04-29T05:53:07.563Z,2.80
2018-04-29T05:54:07.440Z,3.10
2018-04-29T05:55:07.316Z,3.00
2018-04-29T05:56:07.194Z,2.80
2018-04-29T05:57:07.071Z,3.10
2018-04-29T05:58:06.950Z,3.10
2018-04-29T05:59:06.827Z,3.10
2018-04-29T06:00:06.707Z,3.40
2018-04-29T06:01:06.583Z,3.00
2018-04-29T06:02:06.459Z,3.00
2018-04-29T06:03:06.344Z,2.80
2018-04-29T06:04:06.215Z,3.10
2018-04-29T06:05:06.094Z,2.90
2018-04-29T06:06:05.971Z,2.50
2018-04-29T06:07:05.848Z,2.60
2018-04-29T06:08:05.728Z,2.70
2018-04-29T06:09:05.603Z,2.80
2018-04-29T06:10:05.480Z,2.90
2018-04-29T06:11:05.361Z,2.70
2018-04-29T06:12:05.238Z,3.00
2018-04-29T06:13:05.116Z,2.60
2018-04-29T06:14:05.027Z,2.60
2018-04-29T06:15:04.872Z,2.80
2018-04-29T06:16:04.749Z,3.10
2018-04-29T06:17:04.627Z,2.90
2018-04-29T06:18:04.502Z,2.90
2018-04-29T06:19:04.381Z,3.10
2018-04-29T06:20:04.259Z,3.30
2018-04-29T06:21:04.138Z,3.10
2018-04-29T06:22:04.015Z,3.00
2018-04-29T06:23:03.893Z,2.90
2018-04-29T06:24:03.771Z,3.10
2018-04-29T06:25:03.651Z,3.10
2018-04-29T06:26:03.610Z,3.20
2018-04-29T06:27:03.406Z,2.80
2018-04-29T06:28:03.283Z,2.90
2018-04-29T06:29:03.161Z,3.10
2018-04-29T06:30:03.041Z,3.10
2018-04-29T06:31:02.917Z,2.80
2018-04-29T06:32:02.810Z,3.20
2018-04-29T06:33:02.675Z,2.80
2018-04-29T06:34:02.550Z,3.10
2018-04-29T06:35:02.431Z,2.80
2018-04-29T06:36:02.316Z,2.90
2018-04-29T06:37:02.188Z,3.00
2018-04-29T06:38:02.065Z,3.10
2018-04-29T06:39:01.942Z,3.20
2018-04-29T06:40:01.821Z,3.30
2018-04-29T06:41:01.700Z,3.40
2018-04-29T06:42:01.577Z,3.30
2018-04-29T06:43:01.456Z,3.00
2018-04-29T06:44:01.332Z,3.10
2018-04-29T06:45:01.211Z,3.40
2018-04-29T06:46:01.090Z,2.70
2018-04-29T06:47:00.971Z,3.50
2018-04-29T06:48:00.848Z,3.00
2018-04-29T06:49:00.723Z,3.30
2018-04-29T06:50:00.600Z,2.90
2018-04-29T06:51:00.478Z,3.30
2018-04-29T06:52:00.356Z,2.90
2018-04-29T06:53:00.233Z,3.30
2018-04-29T06:54:00.120Z,3.40
2018-04-29T06:54:59.987Z,5.70
2018-04-29T06:55:59.863Z,3.20
2018-04-29T06:56:59.744Z,2.80
2018-04-29T06:57:59.620Z,3.20
2018-04-29T06:58:59.498Z,3.30
2018-04-29T06:59:59.377Z,3.00
2018-04-29T07:00:59.254Z,3.00
2018-04-29T07:01:59.130Z,3.20
2018-04-29T07:02:59.009Z,3.30
2018-04-29T07:03:58.886Z,3.10
2018-04-29T07:04:58.763Z,3.00
2018-04-29T07:05:58.640Z,2.80
2018-04-29T07:06:58.521Z,3.50
2018-04-29T07:07:58.396Z,3.50
2018-04-29T07:08:58.273Z,3.70
2018-04-29T07:09:58.150Z,3.10
2018-04-29T07:10:58.027Z,3.30
2018-04-29T07:11:57.905Z,3.30
2018-04-29T07:12:57.783Z,2.80
2018-04-29T07:13:57.658Z,2.70
2018-04-29T07:14:57.538Z,2.80
2018-04-29T07:15:57.424Z,2.90
2018-04-29T07:16:57.292Z,3.10
2018-04-29T07:17:57.169Z,3.80
2018-04-29T07:18:57.047Z,3.00
2018-04-29T07:19:57.000Z,2.80
2018-04-29T07:20:56.802Z,2.80
2018-04-29T07:21:56.678Z,2.90
2018-04-29T07:22:56.557Z,2.80
2018-04-29T07:23:56.433Z,3.60
2018-04-29T07:24:56.314Z,3.40
2018-04-29T07:25:56.189Z,3.10
2018-04-29T07:26:56.068Z,3.10
2018-04-29T07:27:55.944Z,3.00
2018-04-29T07:28:55.829Z,2.90
2018-04-29T07:29:55.699Z,2.20
2018-04-29T07:30:55.578Z,2.30
2018-04-29T07:31:55.453Z,2.40
2018-04-29T07:32:55.332Z,2.30
2018-04-29T07:33:55.208Z,2.20
2018-04-29T07:34:55.091Z,2.30
2018-04-29T07:35:54.962Z,2.40
2018-04-29T07:36:54.841Z,2.20
2018-04-29T07:37:54.720Z,2.80
2018-04-29T07:38:54.595Z,2.50
2018-04-29T07:39:54.568Z,2.40
2018-04-29T07:40:54.350Z,2.40
2018-04-29T07:41:54.230Z,2.30
2018-04-29T07:42:54.106Z,2.70
2018-04-29T07:43:53.982Z,2.40
2018-04-29T07:44:53.861Z,2.20
2018-04-29T07:45:53.737Z,2.40
2018-04-29T07:46:53.617Z,2.40
2018-04-29T07:47:53.505Z,2.30
2018-04-29T07:48:53.375Z,2.60
2018-04-29T07:49:53.251Z,2.90
2018-04-29T07:50:53.130Z,3.20
2018-04-29T07:51:53.010Z,2.80
2018-04-29T07:52:52.884Z,2.90
2018-04-29T07:53:52.765Z,2.90
2018-04-29T07:54:52.646Z,2.70
2018-04-29T07:55:52.520Z,2.50
2018-04-29T07:56:52.400Z,2.70
2018-04-29T07:57:52.278Z,2.50
2018-04-29T07:58:52.195Z,3.10
2018-04-29T07:59:52.037Z,3.50
2018-04-29T08:00:52.014Z,3.30
2018-04-29T08:01:51.793Z,3.00
2018-04-29T08:02:51.672Z,2.60
2018-04-29T08:03:51.549Z,2.70
2018-04-29T08:04:51.433Z,2.70
2018-04-29T08:05:51.307Z,2.90
2018-04-29T08:06:51.292Z,2.80
2018-04-29T08:07:51.064Z,2.60
2018-04-29T08:08:50.944Z,2.90
2018-04-29T08:09:50.821Z,2.70
2018-04-29T08:10:50.701Z,2.80
2018-04-29T08:11:50.578Z,2.60
2018-04-29T08:12:50.466Z,3.00
2018-04-29T08:13:50.336Z,2.60
2018-04-29T08:14:50.216Z,2.30
2018-04-29T08:15:50.107Z,2.60
2018-04-29T08:16:49.973Z,2.70
2018-04-29T08:17:49.851Z,2.80
2018-04-29T08:18:49.730Z,2.70
2018-04-29T08:19:49.612Z,2.90
2018-04-29T08:20:49.488Z,3.10
2018-04-29T08:21:49.365Z,2.40
2018-04-29T08:22:49.350Z,1.90
2018-04-29T08:23:49.123Z,3.10
2018-04-29T08:24:49.004Z,2.40
2018-04-29T08:25:48.880Z,2.30
2018-04-29T08:26:48.760Z,1.90
2018-04-29T08:27:48.636Z,1.90
2018-04-29T08:28:48.515Z,2.10
2018-04-29T08:29:48.395Z,2.30
2018-04-29T08:30:48.275Z,2.40
2018-04-29T08:31:48.153Z,2.10
2018-04-29T08:32:48.030Z,2.50
2018-04-29T08:33:47.909Z,2.30
2018-04-29T08:34:47.790Z,2.60
2018-04-29T08:35:47.666Z,2.60
2018-04-29T08:36:47.546Z,2.30
2018-04-29T08:37:47.429Z,2.30
2018-04-29T08:38:47.305Z,2.70
2018-04-29T08:39:47.188Z,2.20
2018-04-29T08:40:47.067Z,2.50
2018-04-29T08:41:46.990Z,2.20
2018-04-29T08:42:46.817Z,2.30
2018-04-29T08:43:46.699Z,2.50
2018-04-29T08:44:46.580Z,2.80
2018-04-29T08:45:46.455Z,2.50
2018-04-29T08:46:46.335Z,2.40
2018-04-29T08:47:46.212Z,2.20
2018-04-29T08:48:46.092Z,2.70
2018-04-29T08:49:45.972Z,3.50
2018-04-29T08:50:45.848Z,2.60
2018-04-29T08:51:45.728Z,2.60
2018-04-29T08:52:45.609Z,2.40
2018-04-29T08:53:45.485Z,2.50
2018-04-29T08:54:45.366Z,2.80
2018-04-29T08:55:45.243Z,2.30
2018-04-29T08:56:45.121Z,2.10
2018-04-29T08:57:45.000Z,2.00
2018-04-29T08:58:44.883Z,1.90
2018-04-29T08:59:44.759Z,2.10
2018-04-29T09:00:44.637Z,2.00
2018-04-29T09:01:44.534Z,2.10
2018-04-29T09:02:44.396Z,1.80
2018-04-29T09:03:44.369Z,2.00
2018-04-29T09:04:44.153Z,2.00
2018-04-29T09:05:44.032Z,2.00
2018-04-29T09:06:43.915Z,2.10
2018-04-29T09:07:43.790Z,2.20
2018-04-29T09:08:43.672Z,2.30
2018-04-29T09:09:43.549Z,2.50
2018-04-29T09:10:43.427Z,2.50
2018-04-29T09:11:43.307Z,2.40
2018-04-29T09:12:43.186Z,2.30
2018-04-29T09:13:43.066Z,2.20
2018-04-29T09:14:42.947Z,2.40
2018-04-29T09:15:42.826Z,2.50
2018-04-29T09:16:42.705Z,3.00
2018-04-29T09:17:42.644Z,2.70
2018-04-29T09:18:42.466Z,2.50
2018-04-29T09:19:42.347Z,2.60
2018-04-29T09:20:42.226Z,2.60
2018-04-29T09:21:42.108Z,2.10
2018-04-29T09:22:41.988Z,2.70
2018-04-29T09:23:41.865Z,2.60
2018-04-29T09:24:41.748Z,2.70
2018-04-29T09:25:41.628Z,3.20
2018-04-29T09:26:41.508Z,2.70
2018-04-29T09:27:41.390Z,2.60
2018-04-29T09:28:41.268Z,2.40
2018-04-29T09:29:41.149Z,2.80
2018-04-29T09:30:41.031Z,2.30
2018-04-29T09:31:40.911Z,2.90
2018-04-29T09:32:40.790Z,2.90
2018-04-29T09:33:40.672Z,2.60
2018-04-29T09:34:40.557Z,2.80
2018-04-29T09:35:40.432Z,3.00
2018-04-29T09:36:40.313Z,2.90
2018-04-29T09:37:40.191Z,3.10
2018-04-29T09:38:40.074Z,2.80
2018-04-29T09:39:39.956Z,2.40
2018-04-29T09:40:39.833Z,3.00
2018-04-29T09:41:39.714Z,2.20
2018-04-29T09:42:39.597Z,2.50
2018-04-29T09:43:39.504Z,2.70
2018-04-29T09:44:39.356Z,2.80
2018-04-29T09:45:39.237Z,2.50
2018-04-29T09:46:39.114Z,2.30
2018-04-29T09:47:38.997Z,2.60
2018-04-29T09:48:38.916Z,2.40
2018-04-29T09:49:38.756Z,2.50
2018-04-29T09:50:38.635Z,2.80
2018-04-29T09:51:38.517Z,3.00
2018-04-29T09:52:38.398Z,2.70
2018-04-29T09:53:38.277Z,3.10
2018-04-29T09:54:38.157Z,3.10
2018-04-29T09:55:38.039Z,3.00
2018-04-29T09:56:37.920Z,3.20
2018-04-29T09:57:37.798Z,3.00
2018-04-29T09:58:37.678Z,2.70
2018-04-29T09:59:37.560Z,2.50
2018-04-29T10:00:37.447Z,2.80
2018-04-29T10:01:37.320Z,2.70
2018-04-29T10:02:37.202Z,3.00
2018-04-29T10:03:37.087Z,3.30
2018-04-29T10:04:36.962Z,3.30
2018-04-29T10:05:36.840Z,3.40
2018-04-29T10:06:36.722Z,3.10
2018-04-29T10:07:36.603Z,3.10
2018-04-29T10:08:36.483Z,3.60
2018-04-29T10:09:36.398Z,3.20
2018-04-29T10:10:36.245Z,2.60
2018-04-29T10:11:36.127Z,2.70
2018-04-29T10:12:36.006Z,3.00
2018-04-29T10:13:35.887Z,3.40
2018-04-29T10:14:35.769Z,3.70
2018-04-29T10:15:35.650Z,3.30
2018-04-29T10:16:35.532Z,3.50
2018-04-29T10:17:35.410Z,3.10
2018-04-29T10:18:35.296Z,3.00
2018-04-29T10:19:35.174Z,2.90
2018-04-29T10:20:35.057Z,2.80
2018-04-29T10:21:34.934Z,3.10
2018-04-29T10:22:34.815Z,3.40
2018-04-29T10:23:34.695Z,3.20
2018-04-29T10:24:34.586Z,2.90
2018-04-29T10:25:34.456Z,3.30
2018-04-29T10:26:34.340Z,3.30
2018-04-29T10:27:34.220Z,3.80
2018-04-29T10:28:34.098Z,3.40
2018-04-29T10:29:33.979Z,3.60
2018-04-29T10:30:33.861Z,3.60
2018-04-29T10:31:33.741Z,3.70
2018-04-29T10:32:33.621Z,3.60
2018-04-29T10:33:33.500Z,3.50
2018-04-29T10:34:33.382Z,4.30
2018-04-29T10:35:33.263Z,3.80
2018-04-29T10:36:33.148Z,3.70
2018-04-29T10:37:33.025Z,3.70
2018-04-29T10:38:32.906Z,3.80
2018-04-29T10:39:32.787Z,3.70
2018-04-29T10:40:32.668Z,3.70
2018-04-29T10:41:32.548Z,3.70
2018-04-29T10:42:32.430Z,3.90
2018-04-29T10:43:32.309Z,4.30
2018-04-29T10:44:32.191Z,4.00
2018-04-29T10:45:32.071Z,4.10
2018-04-29T10:46:31.956Z,6.50
2018-04-29T10:47:31.836Z,4.00
2018-04-29T10:48:31.715Z,4.40
2018-04-29T10:49:31.595Z,4.70
2018-04-29T10:50:31.476Z,4.50
2018-04-29T10:51:31.359Z,5.00
2018-04-29T10:52:31.279Z,4.80
2018-04-29T10:53:31.122Z,4.40
2018-04-29T10:54:31.003Z,4.20
2018-04-29T10:55:30.886Z,4.40
2018-04-29T10:56:30.768Z,4.60
2018-04-29T10:57:30.648Z,4.60
2018-04-29T10:58:30.530Z,4.60
2018-04-29T10:59:30.411Z,4.60
2018-04-29T11:00:30.296Z,4.50
2018-04-29T11:01:30.174Z,4.70
2018-04-29T11:02:30.056Z,4.40
2018-04-29T11:03:29.946Z,4.40
2018-04-29T11:04:29.820Z,4.00
2018-04-29T11:05:29.700Z,4.40
2018-04-29T11:06:29.581Z,4.70
2018-04-29T11:07:29.461Z,4.40
2018-04-29T11:08:29.342Z,4.50
2018-04-29T11:09:29.222Z,4.70
2018-04-29T11:10:29.102Z,4.70
2018-04-29T11:11:28.985Z,4.20
2018-04-29T11:12:28.865Z,4.40
2018-04-29T11:13:28.745Z,4.30
2018-04-29T11:14:28.628Z,5.00
2018-04-29T11:15:28.507Z,4.40
2018-04-29T11:16:28.388Z,4.30
2018-04-29T11:17:28.268Z,3.90
2018-04-29T11:18:28.152Z,3.80
2018-04-29T11:19:28.030Z,4.10
2018-04-29T11:20:27.910Z,4.00
2018-04-29T11:21:27.790Z,4.40
2018-04-29T11:22:27.679Z,5.00
2018-04-29T11:23:27.552Z,4.00
2018-04-29T11:24:27.434Z,3.90
2018-04-29T11:25:27.317Z,4.20
2018-04-29T11:26:27.196Z,4.10
2018-04-29T11:27:27.076Z,4.10
2018-04-29T11:28:26.961Z,3.80
2018-04-29T11:29:26.845Z,4.10
2018-04-29T11:30:26.724Z,3.70
2018-04-29T11:31:26.607Z,3.50
2018-04-29T11:32:26.487Z,3.60
2018-04-29T11:33:26.372Z,3.70
2018-04-29T11:34:26.251Z,3.20
2018-04-29T11:35:26.135Z,3.30
2018-04-29T11:36:26.017Z,2.90
2018-04-29T11:37:25.901Z,3.30
2018-04-29T11:38:25.783Z,3.20
2018-04-29T11:39:25.663Z,3.60
2018-04-29T11:40:25.580Z,3.70
2018-04-29T11:41:25.431Z,3.50
2018-04-29T11:42:25.313Z,3.30
2018-04-29T11:43:25.196Z,3.90
2018-04-29T11:44:25.079Z,4.10
2018-04-29T11:45:24.963Z,3.90
2018-04-29T11:46:24.845Z,3.50
2018-04-29T11:47:24.729Z,3.90
2018-04-29T11:48:24.613Z,3.90
2018-04-29T11:49:24.493Z,3.60
2018-04-29T11:50:24.379Z,3.60
2018-04-29T11:51:24.261Z,3.60
2018-04-29T11:52:24.145Z,3.80
2018-04-29T11:53:24.025Z,3.90
2018-04-29T11:54:23.912Z,3.80
2018-04-29T11:55:23.792Z,4.30
2018-04-29T11:56:23.677Z,4.00
2018-04-29T11:57:23.558Z,4.00
2018-04-29T11:58:23.440Z,3.90
2018-04-29T11:59:23.326Z,4.20
2018-04-29T12:00:23.208Z,3.60
2018-04-29T12:01:23.090Z,4.40
2018-04-29T12:02:22.971Z,4.00
2018-04-29T12:03:22.856Z,4.00
2018-04-29T12:04:22.739Z,3.80
2018-04-29T12:05:22.621Z,4.70
2018-04-29T12:06:22.506Z,4.20
2018-04-29T12:07:22.387Z,4.00
2018-04-29T12:08:22.273Z,4.00
2018-04-29T12:09:22.185Z,4.10
2018-04-29T12:10:22.042Z,4.50
2018-04-29T12:11:21.920Z,4.60
2018-04-29T12:12:21.871Z,4.30
2018-04-29T12:13:21.689Z,4.10
2018-04-29T12:14:21.568Z,4.30
2018-04-29T12:15:21.452Z,4.50
2018-04-29T12:16:21.413Z,4.40
2018-04-29T12:17:21.219Z,4.90
2018-04-29T12:18:21.107Z,4.60
2018-04-29T12:19:20.983Z,4.60
2018-04-29T12:20:20.865Z,4.30
2018-04-29T12:21:20.749Z,4.10
2018-04-29T12:22:20.632Z,4.90
2018-04-29T12:23:20.519Z,4.60
2018-04-29T12:24:20.398Z,4.60
2018-04-29T12:25:20.279Z,4.60
2018-04-29T12:26:20.160Z,5.00
2018-04-29T12:27:20.043Z,5.00
2018-04-29T12:28:19.926Z,4.40
2018-04-29T12:29:19.807Z,4.80
2018-04-29T12:30:19.690Z,5.20
2018-04-29T12:31:19.570Z,4.70
2018-04-29T12:32:19.453Z,4.30
2018-04-29T12:33:19.336Z,4.30
2018-04-29T12:34:19.220Z,4.70
2018-04-29T12:35:19.098Z,4.50
2018-04-29T12:36:18.980Z,4.20
2018-04-29T12:37:18.862Z,4.50
2018-04-29T12:38:18.799Z,4.70
2018-04-29T12:39:18.623Z,4.90
2018-04-29T12:40:18.504Z,4.50
2018-04-29T12:41:18.387Z,4.30
2018-04-29T12:42:18.266Z,4.30
2018-04-29T12:43:18.149Z,4.30
2018-04-29T12:44:18.036Z,4.30
2018-04-29T12:45:17.909Z,4.50
2018-04-29T12:46:17.799Z,4.60
2018-04-29T12:47:17.675Z,4.40
2018-04-29T12:48:17.556Z,4.30
2018-04-29T12:49:17.438Z,4.30
2018-04-29T12:50:17.322Z,4.00
2018-04-29T12:51:17.202Z,4.30
2018-04-29T12:52:17.131Z,4.60
2018-04-29T12:53:16.965Z,4.40
2018-04-29T12:54:16.847Z,4.30
2018-04-29T12:55:16.731Z,4.00
2018-04-29T12:56:16.614Z,4.20
2018-04-29T12:57:16.494Z,4.20
2018-04-29T12:58:16.377Z,3.90
2018-04-29T12:59:16.259Z,3.90
2018-04-29T13:00:16.150Z,3.60
2018-04-29T13:01:16.021Z,4.60
2018-04-29T13:02:15.905Z,4.00
2018-04-29T13:03:15.789Z,3.90
2018-04-29T13:04:15.671Z,4.00
2018-04-29T13:05:15.553Z,4.30
2018-04-29T13:06:15.436Z,4.10
2018-04-29T13:07:15.319Z,3.90
2018-04-29T13:08:15.201Z,4.00
2018-04-29T13:09:15.083Z,4.00
2018-04-29T13:10:14.970Z,3.90
2018-04-29T13:11:14.853Z,3.70
2018-04-29T13:12:14.737Z,3.40
2018-04-29T13:13:14.622Z,3.50
2018-04-29T13:14:14.507Z,4.10
2018-04-29T13:15:14.391Z,4.00
2018-04-29T13:16:14.281Z,3.50
2018-04-29T13:17:14.161Z,3.60
2018-04-29T13:18:14.047Z,3.80
2018-04-29T13:19:13.932Z,3.80